Time;durP1;ratioP1;P1;durP2;ratioP2;P2;SDS_P1;SDS_P2;PMS_P1;PMS_P2;Temp;Humidity;BMP_temperature;BMP_pressure;BME280_temperature;BME280_humidity;BME280_pressure;Samples;Min_cycle;Max_cycle;Signal;HPM_P1;HPM_P2
2022/10/18 00:02:25;;;;;;;16.45;9.57;;;;;;;7.07;76.85;100588.03;4979220;28;20058;-84
2022/10/18 00:04:54;;;;;;;16.90;9.15;;;;;;;7.27;76.55;100618.56;4974348;28;20045;-84
2022/10/18 00:07:20;;;;;;;16.45;8.48;;;;;;;7.29;76.84;100609.97;4977502;28;20495;-85
2022/10/18 00:09:46;;;;;;;13.95;9.07;;;;;;;7.48;76.92;100641.41;4975936;28;20049;-82
2022/10/18 00:12:12;;;;;;;13.95;8.35;;;;;;;6.91;76.41;100555.81;4965634;28;20525;-86
2022/10/18 00:14:38;;;;;;;15.43;8.88;;;;;;;6.96;76.99;100561.06;4952263;28;20042;-85
2022/10/18 00:17:05;;;;;;;17.67;9.23;;;;;;;7.09;77.16;100576.84;4979431;28;20061;-84
2022/10/18 00:19:31;;;;;;;16.90;9.35;;;;;;;7.15;76.88;100593.34;4949445;28;20442;-85
2022/10/18 00:21:57;;;;;;;17.27;9.07;;;;;;;7.05;77.33;100576.78;4950684;28;20101;-87
2022/10/18 00:24:23;;;;;;;16.83;8.95;;;;;;;7.22;77.33;100598.66;4949300;28;20097;-84
2022/10/18 00:26:49;;;;;;;16.92;9.50;;;;;;;7.26;77.15;100588.34;4939773;28;20039;-87
2022/10/18 00:29:15;;;;;;;17.08;9.45;;;;;;;6.92;77.03;100532.56;4969305;28;20383;-85
2022/10/18 00:31:43;;;;;;;16.52;9.60;;;;;;;6.91;77.48;100556.72;4952020;28;20921;-86
2022/10/18 00:34:12;;;;;;;16.15;9.20;;;;;;;7.01;77.21;100565.50;4950541;28;20129;-84
2022/10/18 00:36:39;;;;;;;18.67;9.50;;;;;;;7.12;77.17;100563.09;4966570;28;20061;-84
2022/10/18 00:39:06;;;;;;;16.95;9.63;;;;;;;7.37;77.06;100602.38;4968084;28;20057;-84
2022/10/18 00:41:35;;;;;;;16.10;9.10;;;;;;;6.62;77.02;100478.59;4966556;28;20054;-84
2022/10/18 00:44:24;;;;;;;15.75;8.73;;;;;;;7.13;77.35;100562.25;4968593;28;20043;-84
2022/10/18 00:46:55;;;;;;;18.65;9.15;;;;;;;7.41;77.38;100609.31;4963346;28;20573;-84
2022/10/18 00:49:30;;;;;;;14.73;8.73;;;;;;;7.09;77.22;100547.53;4967396;28;20035;-86
2022/10/18 00:52:04;;;;;;;17.50;9.18;;;;;;;7.30;77.53;100556.50;4971851;28;20050;-84
2022/10/18 00:54:33;;;;;;;16.98;9.02;;;;;;;7.13;77.24;100513.09;4953418;28;20050;-87
2022/10/18 00:57:03;;;;;;;16.67;9.05;;;;;;;7.22;77.32;100514.94;4995761;28;20046;-84
2022/10/18 00:59:29;;;;;;;13.18;8.43;;;;;;;7.11;77.18;100481.13;4975325;28;20698;-83
2022/10/18 01:01:56;;;;;;;14.82;8.10;;;;;;;7.36;77.36;100520.34;4989561;28;20045;-84
2022/10/18 01:04:22;;;;;;;18.00;8.88;;;;;;;6.98;77.12;100458.47;4989643;28;20038;-83
2022/10/18 01:07:10;;;;;;;13.75;8.45;;;;;;;7.72;77.18;100573.56;4965441;28;20042;-83
2022/10/18 01:09:48;;;;;;;12.52;8.30;;;;;;;7.62;77.10;100553.53;4964795;28;20089;-83
2022/10/18 01:12:29;;;;;;;13.88;8.07;;;;;;;7.60;77.42;100547.47;4985846;28;20047;-83
2022/10/18 01:15:14;;;;;;;14.18;8.02;;;;;;;7.02;77.06;100463.75;4968368;28;20046;-82
2022/10/18 01:18:05;;;;;;;19.55;9.73;;;;;;;7.67;76.96;100565.72;4980651;28;20045;-81
2022/10/18 01:20:50;;;;;;;17.63;8.95;;;;;;;7.64;77.06;100569.97;4979934;28;20039;-80
2022/10/18 01:23:44;;;;;;;18.35;9.25;;;;;;;7.60;77.10;100568.22;5005827;28;20043;-83
2022/10/18 01:26:55;;;;;;;16.92;8.45;;;;;;;7.61;77.08;100562.19;4976266;28;20043;-80
2022/10/18 01:29:43;;;;;;;13.38;8.25;;;;;;;7.61;77.09;100562.19;4957284;28;20167;-83
2022/10/18 01:32:19;;;;;;;14.02;8.95;;;;;;;7.64;76.88;100562.19;4998047;28;20042;-82
2022/10/18 01:34:49;;;;;;;17.02;8.32;;;;;;;7.39;77.19;100528.19;4933763;28;20042;-83
2022/10/18 01:37:18;;;;;;;14.27;8.50;;;;;;;7.52;77.03;100553.41;4965768;28;20031;-82
2022/10/18 01:39:47;;;;;;;16.27;8.13;;;;;;;7.64;76.96;100567.38;4982589;28;20105;-82
2022/10/18 01:42:17;;;;;;;14.40;8.07;;;;;;;7.14;76.91;100491.53;4967976;28;20038;-81
2022/10/18 01:44:46;;;;;;;14.95;7.93;;;;;;;7.24;77.02;100503.75;4968203;28;20078;-84
2022/10/18 01:47:14;;;;;;;15.40;7.88;;;;;;;6.99;77.01;100463.69;4962818;28;20050;-82
2022/10/18 01:49:40;;;;;;;12.55;8.18;;;;;;;7.16;76.92;100497.63;4991895;28;20047;-83
2022/10/18 01:52:08;;;;;;;16.50;7.85;;;;;;;7.09;77.00;100490.59;4979984;28;20034;-83
2022/10/18 01:54:37;;;;;;;14.23;8.00;;;;;;;7.11;76.88;100483.72;4988000;28;20106;-83
2022/10/18 01:57:41;;;;;;;17.02;8.43;;;;;;;7.22;77.13;100497.69;4962030;28;20062;-82
2022/10/18 02:00:18;;;;;;;12.82;8.13;;;;;;;7.12;77.01;100474.22;4990569;28;20046;-81
2022/10/18 02:02:54;;;;;;;12.63;7.97;;;;;;;6.92;76.80;100434.25;4957906;28;20051;-83
2022/10/18 02:05:27;;;;;;;13.68;8.02;;;;;;;6.88;76.83;100427.28;4979466;28;20067;-83
2022/10/18 02:08:03;;;;;;;13.73;8.25;;;;;;;6.87;76.68;100420.38;4946731;28;20103;-83
2022/10/18 02:10:35;;;;;;;13.48;8.20;;;;;;;7.29;76.77;100475.34;4973494;28;20042;-84
2022/10/18 02:13:03;;;;;;;13.07;7.88;;;;;;;7.45;76.93;100498.91;4969549;28;20077;-83
2022/10/18 02:15:34;;;;;;;17.27;8.05;;;;;;;7.46;76.95;100487.69;4970287;28;20073;-84
2022/10/18 02:18:05;;;;;;;13.38;8.10;;;;;;;6.85;76.36;100385.84;4967817;28;20050;-82
2022/10/18 02:20:32;;;;;;;13.07;8.55;;;;;;;7.41;76.64;100479.84;4970274;28;20039;-82
2022/10/18 02:23:00;;;;;;;12.73;8.05;;;;;;;7.71;76.62;100526.91;4966901;28;20046;-82
2022/10/18 02:25:29;;;;;;;13.82;8.10;;;;;;;7.34;76.61;100472.84;4965269;28;20038;-84
2022/10/18 02:27:58;;;;;;;14.68;7.60;;;;;;;7.59;76.28;100493.94;4964179;28;20506;-82
2022/10/18 02:30:36;;;;;;;13.07;8.13;;;;;;;7.01;76.49;100391.25;4954330;28;20614;-83
2022/10/18 02:33:33;;;;;;;16.35;8.40;;;;;;;7.67;76.60;100494.91;4969528;28;20090;-81
2022/10/18 02:36:05;;;;;;;13.93;7.55;;;;;;;7.42;76.37;100454.84;4981338;28;20050;-83
2022/10/18 02:38:32;;;;;;;14.00;8.45;;;;;;;7.81;76.61;100515.81;4950571;28;20062;-83
2022/10/18 02:40:58;;;;;;;16.48;8.13;;;;;;;7.46;76.49;100454.91;4951620;28;20419;-80
2022/10/18 02:43:24;;;;;;;13.18;7.63;;;;;;;7.12;76.31;100373.28;4974955;28;20073;-83
2022/10/18 02:45:51;;;;;;;13.88;7.63;;;;;;;7.84;76.40;100495.13;4950908;28;20118;-82
2022/10/18 02:48:16;;;;;;;13.90;8.25;;;;;;;7.76;76.09;100487.25;4946075;28;20047;-82
2022/10/18 02:50:42;;;;;;;12.65;8.30;;;;;;;7.27;76.18;100393.34;4951793;28;20079;-82
2022/10/18 02:53:08;;;;;;;15.60;8.50;;;;;;;7.39;76.01;100409.91;4948786;28;20070;-83
2022/10/18 02:55:35;;;;;;;13.55;8.80;;;;;;;7.49;76.37;100431.63;4950563;28;20050;-82
2022/10/18 02:58:00;;;;;;;16.70;8.30;;;;;;;7.44;75.74;100417.75;4952915;28;20052;-82
2022/10/18 03:00:27;;;;;;;15.88;8.02;;;;;;;7.79;75.75;100482.13;4963384;28;20026;-85
2022/10/18 03:02:53;;;;;;;16.13;8.57;;;;;;;7.39;75.99;100416.84;4957582;28;20043;-82
2022/10/18 03:05:19;;;;;;;14.55;8.40;;;;;;;7.06;76.00;100356.81;4987588;28;20058;-83
2022/10/18 03:07:45;;;;;;;14.93;7.97;;;;;;;7.59;76.10;100434.38;4949218;28;20037;-82
2022/10/18 03:10:11;;;;;;;16.73;9.13;;;;;;;7.71;76.21;100444.88;4934555;28;20162;-83
2022/10/18 03:12:38;;;;;;;18.10;8.65;;;;;;;7.41;75.94;100394.41;4945648;28;20070;-83
2022/10/18 03:15:04;;;;;;;15.20;8.75;;;;;;;7.20;76.04;100354.41;4961809;28;20035;-85
2022/10/18 03:17:31;;;;;;;17.48;9.10;;;;;;;7.64;76.25;100419.72;4970128;28;20051;-86
2022/10/18 03:19:57;;;;;;;17.38;8.52;;;;;;;7.64;75.88;100425.78;4968448;28;20023;-86
2022/10/18 03:22:24;;;;;;;16.05;9.02;;;;;;;7.15;75.93;100347.44;4990025;28;20123;-83
2022/10/18 03:24:56;;;;;;;15.60;8.63;;;;;;;7.65;75.65;100422.34;4971360;28;20046;-83
2022/10/18 03:27:22;;;;;;;16.55;8.60;;;;;;;6.82;75.76;100271.97;4954889;29;20036;-85
2022/10/18 03:29:48;;;;;;;15.27;9.00;;;;;;;7.79;75.77;100427.72;4974814;28;20034;-86
2022/10/18 03:32:14;;;;;;;16.30;8.85;;;;;;;6.61;75.60;100221.66;4978379;28;20062;-86
2022/10/18 03:34:40;;;;;;;12.38;8.10;;;;;;;7.45;75.85;100362.50;4959203;29;20035;-86
2022/10/18 03:37:09;;;;;;;14.85;8.05;;;;;;;7.16;75.92;100313.84;4959138;29;20031;-84
2022/10/18 03:39:35;;;;;;;17.50;8.88;;;;;;;7.24;75.38;100290.63;4980326;28;20081;-84
2022/10/18 03:42:07;;;;;;;16.27;8.93;;;;;;;7.55;75.89;100366.09;4994395;28;20043;-86
2022/10/18 03:44:33;;;;;;;;;;;;;;;7.81;75.77;100407.88;4977441;28;20055;-84
2022/10/18 03:46:59;;;;;;;17.23;7.85;;;;;;;7.69;75.68;100380.09;4996628;28;19941;-85
2022/10/18 03:49:31;;;;;;;13.18;8.15;;;;;;;7.41;75.52;100324.47;4978639;28;20494;-87
2022/10/18 03:51:58;;;;;;;13.98;8.15;;;;;;;7.78;75.52;100381.94;4975296;28;20522;-85
2022/10/18 03:54:34;;;;;;;14.40;9.10;;;;;;;7.76;75.49;100385.34;4977691;28;20034;-83
2022/10/18 03:57:00;;;;;;;16.00;8.73;;;;;;;7.29;75.53;100327.78;4978712;28;20050;-84
2022/10/18 03:59:26;;;;;;;14.88;8.50;;;;;;;7.07;75.68;100287.81;4977798;28;20035;-86
2022/10/18 04:01:52;;;;;;;15.35;8.40;;;;;;;7.57;75.49;100363.53;4975995;28;20049;-83
2022/10/18 04:04:19;;;;;;;14.48;8.93;;;;;;;7.68;75.65;100368.00;4991828;28;20098;-84
2022/10/18 04:06:45;;;;;;;17.15;8.85;;;;;;;7.51;75.48;100341.00;4972851;28;20039;-84
2022/10/18 04:09:12;;;;;;;17.42;8.93;;;;;;;7.72;75.44;100352.50;4988292;28;20125;-82
2022/10/18 04:11:39;;;;;;;19.00;9.70;;;;;;;6.68;75.27;100185.56;4990405;28;20043;-84
2022/10/18 04:14:06;;;;;;;19.75;9.95;;;;;;;7.64;75.52;100332.53;4990577;28;20043;-84
2022/10/18 04:16:34;;;;;;;21.95;11.73;;;;;;;7.19;75.57;100246.56;4989106;28;20054;-82
2022/10/18 04:19:03;;;;;;;18.10;10.80;;;;;;;7.45;75.53;100279.66;4974243;28;20046;-84
2022/10/18 04:21:30;;;;;;;25.02;11.00;;;;;;;6.87;75.33;100200.47;4974187;28;20137;-84
2022/10/18 04:24:09;;;;;;;19.55;10.50;;;;;;;7.19;75.14;100236.19;4984181;28;20048;-83
2022/10/18 04:26:35;;;;;;;15.48;10.07;;;;;;;7.68;75.44;100312.72;4967573;28;20042;-81
2022/10/18 04:29:01;;;;;;;15.52;9.25;;;;;;;7.87;75.42;100344.88;4985880;28;20055;-84
2022/10/18 04:31:27;;;;;;;18.30;9.95;;;;;;;7.91;75.50;100341.47;4984853;28;20047;-83
2022/10/18 04:34:01;;;;;;;15.10;9.18;;;;;;;7.51;75.78;100268.50;4981303;28;20054;-82
2022/10/18 04:36:27;;;;;;;16.30;8.73;;;;;;;7.94;75.66;100317.31;4987629;28;20058;-82
2022/10/18 04:38:53;;;;;;;16.70;8.70;;;;;;;7.48;75.18;100240.00;4989903;28;20062;-83
2022/10/18 04:41:19;;;;;;;16.17;9.07;;;;;;;7.97;75.37;100315.59;4984303;28;20043;-83
2022/10/18 04:43:45;;;;;;;13.05;7.90;;;;;;;7.53;75.31;100221.06;4985236;28;20062;-84
2022/10/18 04:46:11;;;;;;;15.73;8.95;;;;;;;8.20;75.34;100320.16;4957721;28;20043;-82
2022/10/18 04:48:38;;;;;;;16.00;8.90;;;;;;;7.97;75.08;100283.66;5000800;28;20068;-84
2022/10/18 04:51:04;;;;;;;17.52;9.40;;;;;;;7.60;75.15;100201.25;4974505;28;20490;-83
2022/10/18 04:53:32;;;;;;;15.90;8.43;;;;;;;8.02;74.90;100263.84;4984867;28;20081;-82
2022/10/18 04:55:59;;;;;;;16.33;8.25;;;;;;;7.56;74.51;100194.31;4969399;28;20078;-84
2022/10/18 04:58:25;;;;;;;14.82;9.35;;;;;;;7.64;74.67;100197.84;4981733;28;20050;-83
2022/10/18 05:00:51;;;;;;;15.68;7.82;;;;;;;8.33;75.12;100307.31;4978148;28;20047;-84
2022/10/18 05:03:17;;;;;;;20.90;8.07;;;;;;;8.05;75.22;100245.72;4979896;28;20042;-83
2022/10/18 05:05:44;;;;;;;15.57;8.38;;;;;;;7.93;74.67;100207.63;4954184;28;20046;-83
2022/10/18 05:08:11;;;;;;;14.27;8.35;;;;;;;8.16;74.91;100231.97;4972232;28;20046;-83
2022/10/18 05:10:37;;;;;;;14.43;8.70;;;;;;;8.14;74.48;100217.28;4942357;28;20073;-82
2022/10/18 05:13:03;;;;;;;15.68;8.18;;;;;;;8.37;74.54;100242.50;4974303;28;20126;-84
2022/10/18 05:15:30;;;;;;;16.05;8.60;;;;;;;8.74;74.44;100286.88;4975209;28;20038;-83
2022/10/18 05:17:56;;;;;;;16.58;8.82;;;;;;;8.46;74.55;100226.13;4955365;28;20043;-83
2022/10/18 05:20:22;;;;;;;14.30;8.48;;;;;;;8.52;74.18;100222.75;4969335;28;20042;-85
2022/10/18 05:22:48;;;;;;;14.48;8.05;;;;;;;8.69;74.56;100252.28;4973759;28;20442;-85
2022/10/18 05:25:14;;;;;;;17.02;9.13;;;;;;;8.69;74.03;100252.28;4969227;28;20047;-83
2022/10/18 05:27:39;;;;;;;17.58;8.63;;;;;;;8.81;74.03;100297.31;4964267;28;20082;-83
2022/10/18 05:30:06;;;;;;;16.70;8.30;;;;;;;8.55;73.89;100261.66;4966999;28;20502;-83
2022/10/18 05:32:32;;;;;;;14.57;8.40;;;;;;;8.50;73.88;100258.16;4953785;28;20038;-82
2022/10/18 05:34:58;;;;;;;15.00;8.55;;;;;;;8.18;73.71;100204.34;4967519;28;20054;-81
2022/10/18 05:37:34;;;;;;;20.08;8.43;;;;;;;8.70;73.73;100298.13;4964099;28;20045;-84
2022/10/18 05:40:00;;;;;;;16.92;9.00;;;;;;;8.12;73.67;100187.88;4933605;29;20712;-84
2022/10/18 05:42:29;;;;;;;18.45;8.23;;;;;;;8.52;73.78;100236.59;4950917;29;20049;-84
2022/10/18 05:44:56;;;;;;;16.75;8.40;;;;;;;8.90;73.61;100287.00;4942424;29;20046;-83
2022/10/18 05:47:22;;;;;;;13.98;8.27;;;;;;;8.98;73.72;100305.19;4979467;28;20052;-83
2022/10/18 05:49:48;;;;;;;14.23;8.77;;;;;;;8.40;73.35;100200.16;4968799;28;20027;-82
2022/10/18 05:52:14;;;;;;;19.08;8.90;;;;;;;8.10;73.10;100147.25;4960980;28;20499;-85
2022/10/18 05:54:40;;;;;;;16.00;8.27;;;;;;;8.69;73.37;100254.88;4953516;29;20048;-86
2022/10/18 05:57:11;;;;;;;20.42;9.40;;;;;;;9.06;73.09;100294.84;4950733;29;20054;-83
2022/10/18 05:59:37;;;;;;;18.75;8.63;;;;;;;8.82;73.24;100254.94;4960033;28;20035;-82
2022/10/18 06:02:21;;;;;;;16.52;9.13;;;;;;;8.73;72.95;100228.06;4950686;29;20526;-84
2022/10/18 06:04:54;;;;;;;15.75;8.43;;;;;;;8.84;73.08;100230.69;4953962;29;20079;-85
2022/10/18 06:07:20;;;;;;;17.10;9.43;;;;;;;8.29;73.03;100130.97;4966714;28;20031;-85
2022/10/18 06:09:52;;;;;;;16.50;8.45;;;;;;;8.49;72.73;100163.94;4952970;28;20098;-84
2022/10/18 06:12:43;;;;;;;16.55;7.85;;;;;;;8.34;72.79;100125.78;4964452;28;20058;-86
2022/10/18 06:15:26;;;;;;;17.25;9.48;;;;;;;9.07;72.42;100224.75;4936658;29;20039;-85
2022/10/18 06:17:53;;;;;;;18.40;9.25;;;;;;;9.21;72.75;100249.91;4937291;28;20149;-84
2022/10/18 06:20:19;;;;;;;18.67;9.05;;;;;;;8.88;72.79;100195.28;4968784;28;20574;-84
2022/10/18 06:22:45;;;;;;;14.60;8.63;;;;;;;8.88;72.79;100182.31;4961723;29;20625;-82
2022/10/18 06:25:11;;;;;;;16.00;8.05;;;;;;;8.23;72.81;100065.25;4974045;28;20071;-84
2022/10/18 06:27:38;;;;;;;17.13;8.70;;;;;;;8.89;72.39;100176.25;4968644;29;20039;-85
2022/10/18 06:30:05;;;;;;;16.15;8.10;;;;;;;8.71;72.26;100133.81;4951789;29;20039;-83
2022/10/18 06:32:41;;;;;;;17.35;8.68;;;;;;;8.42;72.62;100067.06;4972858;29;20040;-84
2022/10/18 06:35:08;;;;;;;15.75;8.07;;;;;;;9.05;72.74;100164.16;4940085;28;20110;-82
2022/10/18 06:37:35;;;;;;;15.07;8.15;;;;;;;8.94;72.35;100142.53;4974176;28;20034;-82
2022/10/18 06:40:01;;;;;;;15.35;8.65;;;;;;;9.01;72.10;100132.16;4947148;29;20039;-85
2022/10/18 06:42:30;;;;;;;17.30;8.45;;;;;;;8.94;72.17;100117.41;4987519;28;20022;-82
2022/10/18 06:44:57;;;;;;;14.10;8.15;;;;;;;9.22;71.76;100169.41;4960444;28;20047;-86
2022/10/18 06:47:29;;;;;;;15.18;8.25;;;;;;;8.89;71.86;100100.97;4976031;28;20054;-83
2022/10/18 06:49:55;;;;;;;15.98;8.60;;;;;;;9.10;71.80;100140.84;4964654;28;20047;-86
2022/10/18 06:52:24;;;;;;;15.10;8.68;;;;;;;8.95;72.02;100111.38;4949339;29;20047;-83
2022/10/18 06:54:52;;;;;;;18.08;8.88;;;;;;;8.61;72.41;100038.63;4964865;28;20075;-83
2022/10/18 06:57:20;;;;;;;19.45;9.38;;;;;;;9.17;72.12;100101.03;4967850;29;20063;-82
2022/10/18 06:59:46;;;;;;;16.23;8.77;;;;;;;8.99;72.11;100068.97;4955392;28;20054;-82
2022/10/18 07:02:18;;;;;;;18.65;9.48;;;;;;;8.68;72.04;100019.63;4972329;28;20061;-81
2022/10/18 07:04:45;;;;;;;22.20;9.98;;;;;;;8.26;72.56;99982.31;4981486;28;20051;-83
2022/10/18 07:07:11;;;;;;;18.42;9.40;;;;;;;7.92;72.66;99917.38;4946798;28;20039;-83
2022/10/18 07:09:40;;;;;;;16.70;9.80;;;;;;;8.83;73.10;100087.97;4958710;29;20047;-82
2022/10/18 07:12:10;;;;;;;19.60;9.85;;;;;;;8.92;73.27;100115.69;4957150;28;20039;-87
2022/10/18 07:14:37;;;;;;;19.45;9.98;;;;;;;8.96;73.21;100099.28;4957515;28;20166;-82
2022/10/18 07:17:03;;;;;;;19.02;9.40;;;;;;;8.31;73.38;99951.19;4957248;29;20069;-83
2022/10/18 07:19:40;;;;;;;20.27;9.20;;;;;;;8.98;73.40;100041.28;4978940;28;20116;-88
2022/10/18 07:22:09;;;;;;;22.48;9.80;;;;;;;8.14;73.48;99908.81;4963346;28;20049;-84
2022/10/18 07:24:38;;;;;;;17.60;10.20;;;;;;;8.79;73.75;100029.16;4975178;28;20277;-81
2022/10/18 07:27:16;;;;;;;20.90;9.57;;;;;;;8.68;73.65;100003.19;4972603;28;20410;-86
2022/10/18 07:29:48;;;;;;;19.15;10.23;;;;;;;8.46;73.96;99940.00;4955977;28;20077;-83
2022/10/18 07:32:16;;;;;;;16.98;9.07;;;;;;;8.60;73.88;99972.03;4977472;28;20054;-86
2022/10/18 07:34:42;;;;;;;19.92;9.52;;;;;;;8.47;73.85;99928.78;4958719;28;20051;-85
2022/10/18 07:37:11;;;;;;;18.98;10.00;;;;;;;8.34;74.52;99915.75;4974744;28;20051;-83
2022/10/18 07:39:46;;;;;;;18.95;10.10;;;;;;;8.50;74.55;99929.66;5022054;28;20080;-80
2022/10/18 07:42:46;;;;;;;;;;;;;;;;;;;;;
2022/10/18 07:45:21;;;;;;;20.27;9.98;;;;;;;7.66;74.80;99739.41;4971348;28;20078;-85
2022/10/18 07:47:52;;;;;;;17.77;9.65;;;;;;;8.92;74.81;99924.50;4991231;28;20038;-84
2022/10/18 07:50:23;;;;;;;18.50;9.80;;;;;;;8.91;74.89;99912.41;4981970;28;20066;-81
2022/10/18 07:53:02;;;;;;;21.30;8.95;;;;;;;8.04;74.64;99735.13;4980591;28;20056;-83
2022/10/18 07:55:34;;;;;;;17.02;9.52;;;;;;;8.02;74.79;99729.97;4968165;28;20131;-81
2022/10/18 07:58:04;;;;;;;21.25;9.73;;;;;;;8.49;75.12;99785.28;4963022;28;20395;-83
2022/10/18 08:00:34;;;;;;;20.58;9.27;;;;;;;8.68;75.33;99799.13;5007862;28;20018;-82
2022/10/18 08:03:00;;;;;;;16.23;9.05;;;;;;;8.21;74.92;99723.03;5001505;28;20050;-84
2022/10/18 08:05:29;;;;;;;19.75;10.27;;;;;;;8.85;74.85;99811.19;4998945;28;20023;-83
2022/10/18 08:07:56;;;;;;;17.75;9.73;;;;;;;8.44;75.00;99746.38;4985358;28;20097;-83
2022/10/18 08:10:25;;;;;;;18.90;9.30;;;;;;;8.94;75.50;99803.38;4995872;28;20045;-80
2022/10/18 08:12:53;;;;;;;19.80;10.07;;;;;;;8.69;75.18;99764.53;4964265;28;20061;-85
2022/10/18 08:15:32;;;;;;;21.38;10.38;;;;;;;9.17;75.62;99821.50;4971216;28;20049;-84
2022/10/18 08:17:58;;;;;;;17.70;9.77;;;;;;;8.54;75.54;99673.75;4964007;28;20045;-83
2022/10/18 08:20:35;;;;;;;17.75;9.35;;;;;;;8.85;74.97;99715.19;4977688;28;20042;-82
2022/10/18 08:23:07;;;;;;;16.55;9.05;;;;;;;8.81;74.81;99696.19;4979159;28;20446;-82
2022/10/18 08:25:54;;;;;;;22.33;9.70;;;;;;;9.02;74.84;99739.34;4969157;28;20045;-84
2022/10/18 08:28:21;;;;;;;19.40;9.55;;;;;;;8.73;75.02;99729.91;4983699;28;20066;-84
2022/10/18 08:30:47;;;;;;;20.00;9.70;;;;;;;8.08;75.13;99649.59;4968757;28;20046;-81
2022/10/18 08:33:13;;;;;;;21.30;9.77;;;;;;;7.47;75.54;99567.63;4968898;28;20064;-80
2022/10/18 08:35:39;;;;;;;25.77;11.27;;;;;;;8.27;76.67;99688.50;4963972;28;20082;-78
2022/10/18 08:38:10;;;;;;;20.13;9.77;;;;;;;7.73;76.42;99616.81;4985120;28;20101;-80
2022/10/18 08:40:43;;;;;;;25.20;11.10;;;;;;;8.12;76.99;99668.63;4966214;28;20078;-80
2022/10/18 08:43:45;;;;;;;25.92;11.32;;;;;;;8.11;77.32;99635.78;4968743;28;20175;-81
2022/10/18 08:46:12;;;;;;;24.73;10.95;;;;;;;7.82;77.64;99579.69;4946377;28;20419;-85
2022/10/18 08:48:46;;;;;;;40.90;13.35;;;;;;;8.16;78.25;99610.75;4946907;28;20402;-82
2022/10/18 08:51:30;;;;;;;29.15;12.57;;;;;;;7.89;77.94;99534.78;4925413;28;20445;-82
2022/10/18 08:54:23;;;;;;;33.55;12.73;;;;;;;7.51;78.11;99471.81;4935735;28;20052;-82
2022/10/18 08:57:01;;;;;;;34.22;13.38;;;;;;;7.62;78.80;99457.97;4963385;28;20062;-85
2022/10/18 08:59:37;;;;;;;32.08;13.20;;;;;;;7.81;78.80;99495.94;4967808;28;20042;-80
2022/10/18 09:02:39;;;;;;;30.35;12.43;;;;;;;7.88;78.59;99521.81;4983330;28;20028;-79
2022/10/18 09:05:18;;;;;;;27.20;12.48;;;;;;;7.66;79.25;99467.47;4952691;28;20043;-83
2022/10/18 09:08:08;;;;;;;22.27;11.32;;;;;;;7.84;79.44;99485.53;4937692;28;20039;-80
2022/10/18 09:10:52;;;;;;;23.58;10.18;;;;;;;7.86;79.30;99448.41;4951059;28;20047;-79
2022/10/18 09:13:45;;;;;;;24.15;11.38;;;;;;;7.82;79.86;99452.75;4947654;28;20062;-82
2022/10/18 09:16:20;;;;;;;19.98;9.68;;;;;;;7.79;79.86;99476.06;4964755;28;20122;-85
2022/10/18 09:19:13;;;;;;;24.52;11.07;;;;;;;7.63;80.37;99397.53;4967166;28;20043;-85
2022/10/18 09:21:53;;;;;;;24.70;11.18;;;;;;;7.79;80.05;99500.25;4948184;28;20118;-85
2022/10/18 09:24:31;;;;;;;29.48;11.90;;;;;;;7.90;80.69;99476.91;4944936;28;20102;-82
2022/10/18 09:27:04;;;;;;;28.95;12.45;;;;;;;7.60;80.45;99407.94;4944112;28;20043;-83
2022/10/18 09:29:49;;;;;;;25.17;10.77;;;;;;;8.18;80.85;99470.75;4944179;28;20038;-83
2022/10/18 09:32:42;;;;;;;21.42;10.25;;;;;;;8.25;80.76;99475.06;4945893;28;20032;-83
2022/10/18 09:35:18;;;;;;;25.00;10.60;;;;;;;8.21;80.76;99437.91;4943498;28;20057;-83
2022/10/18 09:37:45;;;;;;;22.75;10.77;;;;;;;7.89;80.73;99360.31;4949868;28;20052;-84
2022/10/18 09:40:18;;;;;;;21.33;9.45;;;;;;;8.25;80.68;99402.47;4951937;28;20042;-84
2022/10/18 09:43:07;;;;;;;20.83;9.82;;;;;;;8.48;81.13;99433.47;4956289;28;20052;-83
2022/10/18 09:45:39;;;;;;;20.35;9.95;;;;;;;8.32;80.89;99374.78;4922860;28;20038;-84
2022/10/18 09:48:33;;;;;;;17.17;9.73;;;;;;;8.62;81.35;99412.63;4944275;28;20089;-84
2022/10/18 09:51:20;;;;;;;20.10;10.10;;;;;;;8.16;81.11;99320.44;4955108;28;20043;-86
2022/10/18 09:54:20;;;;;;;22.00;10.52;;;;;;;8.76;81.34;99399.56;4959093;28;20043;-84
2022/10/18 09:57:03;;;;;;;18.02;9.50;;;;;;;8.77;81.13;99382.25;4952654;28;20050;-82
2022/10/18 09:59:40;;;;;;;20.92;10.20;;;;;;;8.94;81.42;99398.53;4940308;28;20043;-84
2022/10/18 10:02:12;;;;;;;19.15;10.20;;;;;;;8.29;81.32;99296.16;4940798;29;20171;-83
2022/10/18 10:04:38;;;;;;;;;;;;;;;8.99;81.48;99393.31;4926014;29;20066;-83
2022/10/18 10:07:11;;;;;;;17.67;9.45;;;;;;;9.07;81.64;99399.28;4975755;28;20291;-86
2022/10/18 10:09:46;;;;;;;19.38;9.95;;;;;;;9.10;81.28;99368.13;4944009;29;20574;-82
2022/10/18 10:12:33;;;;;;;20.05;9.85;;;;;;;9.14;81.32;99371.56;4928945;29;20039;-82
2022/10/18 10:15:22;;;;;;;21.30;10.98;;;;;;;9.18;81.66;99387.09;4955902;29;20051;-82
2022/10/18 10:18:00;;;;;;;20.65;10.68;;;;;;;8.50;81.31;99255.41;4976244;28;20090;-84
2022/10/18 10:21:08;;;;;;;21.02;10.90;;;;;;;9.30;81.89;99362.72;4979039;28;20107;-82
2022/10/18 10:23:43;;;;;;;19.67;10.48;;;;;;;8.95;81.53;99293.84;4912145;29;20051;-82
2022/10/18 10:26:33;;;;;;;22.55;11.93;;;;;;;9.42;81.70;99347.88;4962701;28;20039;-83
2022/10/18 10:29:02;;;;;;;19.50;11.05;;;;;;;8.56;81.69;99200.00;4964487;28;20073;-85
2022/10/18 10:31:35;;;;;;;19.88;11.18;;;;;;;8.77;82.08;99224.00;4965646;28;20108;-84
2022/10/18 10:34:05;;;;;;;19.00;10.85;;;;;;;8.73;81.93;99205.03;4947272;28;20118;-85
2022/10/18 10:36:49;;;;;;;20.40;11.60;;;;;;;8.61;81.90;99169.72;4946087;28;20130;-85
2022/10/18 10:39:18;;;;;;;22.85;11.50;;;;;;;8.50;82.07;99117.09;4953887;28;20235;-83
2022/10/18 10:41:55;;;;;;;20.17;11.63;;;;;;;9.76;82.07;99322.34;4966942;29;20047;-85
2022/10/18 10:44:37;;;;;;;22.08;11.80;;;;;;;9.84;82.35;99317.03;4994528;28;20119;-81
2022/10/18 10:47:34;;;;;;;;;;;;;;;;;;;;;
2022/10/18 10:50:13;;;;;;;20.35;11.40;;;;;;;9.84;82.70;99291.06;4961112;29;20066;-86
2022/10/18 10:56:49;;;;;;;23.27;12.50;;;;;;;10.14;82.56;99304.50;4943271;29;20042;-84
2022/10/18 10:59:26;;;;;;;22.05;12.43;;;;;;;9.58;82.38;99203.09;4979320;28;20051;-83
2022/10/18 11:02:28;;;;;;;21.30;12.93;;;;;;;9.19;82.31;99120.53;4987808;28;20043;-84
2022/10/18 11:05:23;;;;;;;26.80;14.07;;;;;;;9.97;82.25;99234.56;4937071;29;20043;-84
2022/10/18 11:07:58;;;;;;;26.60;14.82;;;;;;;10.00;82.84;99252.72;4942728;29;20058;-86
2022/10/18 11:13:27;;;;;;;29.58;15.65;;;;;;;10.19;82.80;99258.50;4986547;28;20047;-82
2022/10/18 11:16:11;;;;;;;30.05;15.25;;;;;;;9.89;82.94;99177.50;4990749;28;20050;-85
2022/10/18 11:19:08;;;;;;;27.73;15.52;;;;;;;10.07;82.95;99186.75;4952108;29;20454;-82
2022/10/18 11:21:38;;;;;;;28.50;15.73;;;;;;;10.64;82.86;99249.13;4963255;28;20035;-83
2022/10/18 11:24:15;;;;;;;25.73;14.57;;;;;;;10.78;82.95;99259.28;4964839;28;20058;-83
2022/10/18 11:26:58;;;;;;;27.45;15.38;;;;;;;10.87;83.15;99269.50;4961304;28;20039;-83
2022/10/18 11:32:51;;;;;;;24.75;14.75;;;;;;;10.78;83.27;99267.94;4956796;28;20042;-84
2022/10/18 11:35:48;;;;;;;25.73;14.88;;;;;;;9.94;83.17;99102.06;4952512;28;20066;-85
2022/10/18 11:38:21;;;;;;;26.45;16.08;;;;;;;11.08;83.56;99283.88;4955478;28;20059;-85
2022/10/18 11:41:25;;;;;;;24.80;15.60;;;;;;;10.51;83.13;99175.63;4953674;28;20051;-83
2022/10/18 11:44:00;;;;;;;29.35;16.85;;;;;;;11.18;83.60;99273.25;4963592;28;20019;-83
2022/10/18 11:46:45;;;;;;;26.70;15.70;;;;;;;11.24;83.30;99266.22;4958239;28;20044;-83
2022/10/18 11:49:51;;;;;;;30.23;18.40;;;;;;;11.08;83.42;99247.41;4933161;28;20056;-84
2022/10/18 11:52:37;;;;;;;24.88;16.23;;;;;;;11.37;83.58;99271.16;4922659;28;20096;-84
2022/10/18 11:55:44;;;;;;;23.20;14.63;;;;;;;11.44;83.59;99280.56;4955320;28;20023;-86
2022/10/18 11:58:28;;;;;;;26.02;15.98;;;;;;;11.49;83.72;99264.84;4935128;28;20075;-85
2022/10/18 12:01:42;;;;;;;24.50;16.42;;;;;;;10.54;83.41;99098.38;4951145;28;20261;-86
2022/10/18 12:04:17;;;;;;;23.92;16.17;;;;;;;11.06;83.73;99184.09;4924639;28;20074;-82
2022/10/18 12:06:46;;;;;;;25.27;15.45;;;;;;;11.71;83.64;99273.91;4949708;28;20107;-85
2022/10/18 12:09:24;;;;;;;23.80;14.38;;;;;;;11.53;83.59;99232.63;4937970;28;20034;-82